createdAt,value
2018-06-30T00:00:57.279Z,21.16
2018-06-30T00:01:57.357Z,21.16
2018-06-30T00:02:57.223Z,21.25
2018-06-30T00:03:57.220Z,21.11
2018-06-30T00:04:57.165Z,21.18
2018-06-30T00:05:57.157Z,21.20
2018-06-30T00:06:57.170Z,21.18
2018-06-30T00:07:57.146Z,21.20
2018-06-30T00:08:57.090Z,21.19
2018-06-30T00:09:57.056Z,21.08
2018-06-30T00:10:57.064Z,21.03
2018-06-30T00:11:57.008Z,21.03
2018-06-30T00:12:56.982Z,20.98
2018-06-30T00:13:56.956Z,20.90
2018-06-30T00:14:56.933Z,20.95
2018-06-30T00:15:56.909Z,20.88
2018-06-30T00:16:56.880Z,20.82
2018-06-30T00:17:56.863Z,20.86
2018-06-30T00:18:56.845Z,20.83
2018-06-30T00:19:56.826Z,20.80
2018-06-30T00:20:56.835Z,20.86
2018-06-30T00:21:56.761Z,20.85
2018-06-30T00:22:56.779Z,20.71
2018-06-30T00:23:56.747Z,20.74
2018-06-30T00:24:56.729Z,20.80
2018-06-30T00:25:56.677Z,20.80
2018-06-30T00:26:56.650Z,20.73
2018-06-30T00:27:56.638Z,20.70
2018-06-30T00:28:56.601Z,20.75
2018-06-30T00:29:56.572Z,20.67
2018-06-30T00:30:56.564Z,20.79
2018-06-30T00:31:56.527Z,20.68
2018-06-30T00:32:58.037Z,20.75
2018-06-30T00:33:56.477Z,20.61
2018-06-30T00:34:56.462Z,20.55
2018-06-30T00:35:56.426Z,20.60
2018-06-30T00:36:56.402Z,20.61
2018-06-30T00:37:56.386Z,20.49
2018-06-30T00:38:56.361Z,20.48
2018-06-30T00:39:56.334Z,20.44
2018-06-30T00:40:56.328Z,20.49
2018-06-30T00:41:56.279Z,20.41
2018-06-30T00:42:56.270Z,20.49
2018-06-30T00:43:56.281Z,20.34
2018-06-30T00:44:56.223Z,20.44
2018-06-30T00:45:56.197Z,20.44
2018-06-30T00:46:56.195Z,20.48
2018-06-30T00:47:56.142Z,20.48
2018-06-30T00:48:56.114Z,20.48
2018-06-30T00:49:56.094Z,20.48
2018-06-30T00:50:56.073Z,20.39
2018-06-30T00:51:56.046Z,20.27
2018-06-30T00:52:56.030Z,20.32
2018-06-30T00:53:55.991Z,20.41
2018-06-30T00:54:58.556Z,20.34
2018-06-30T00:55:55.946Z,20.34
2018-06-30T00:56:56.044Z,20.39
2018-06-30T00:57:55.916Z,20.41
2018-06-30T00:58:55.887Z,20.37
2018-06-30T00:59:55.849Z,20.42
2018-06-30T01:00:55.857Z,20.42
2018-06-30T01:01:55.797Z,20.26
2018-06-30T01:02:55.781Z,20.26
2018-06-30T01:03:55.775Z,20.25
2018-06-30T01:04:55.732Z,20.27
2018-06-30T01:05:55.702Z,20.23
2018-06-30T01:06:55.682Z,20.29
2018-06-30T01:08:14.799Z,20.22
2018-06-30T01:10:00.249Z,20.25
2018-06-30T01:11:00.443Z,20.26
2018-06-30T01:13:04.887Z,20.27
2018-06-30T01:14:04.844Z,20.26
2018-06-30T01:16:08.070Z,20.23
2018-06-30T01:17:08.063Z,20.23
2018-06-30T01:19:15.185Z,20.12
2018-06-30T01:20:14.940Z,20.05
2018-06-30T01:22:16.673Z,20.00
2018-06-30T01:23:15.545Z,20.05
2018-06-30T01:25:20.104Z,20.09
2018-06-30T01:26:19.594Z,20.04
2018-06-30T01:28:30.427Z,20.05
2018-06-30T01:29:30.281Z,19.94
2018-06-30T01:30:30.062Z,19.94
2018-06-30T01:31:30.524Z,19.89
2018-06-30T01:32:30.146Z,19.93
2018-06-30T01:33:30.184Z,20.07
2018-06-30T01:34:30.009Z,19.92
2018-06-30T01:35:29.909Z,20.00
2018-06-30T01:36:30.395Z,20.05
2018-06-30T01:37:30.913Z,20.02
2018-06-30T01:38:29.697Z,19.97
2018-06-30T01:39:29.647Z,19.86
2018-06-30T01:40:29.606Z,19.86
2018-06-30T01:41:29.602Z,19.90
2018-06-30T01:42:29.565Z,19.92
2018-06-30T01:43:29.540Z,19.82
2018-06-30T01:44:29.511Z,19.92
2018-06-30T01:45:29.485Z,19.87
2018-06-30T01:46:29.460Z,19.92
2018-06-30T01:47:29.436Z,19.87
2018-06-30T01:48:29.406Z,19.94
2018-06-30T01:49:29.409Z,19.82
2018-06-30T01:50:29.422Z,19.79
2018-06-30T01:51:29.338Z,19.78
2018-06-30T01:52:29.319Z,19.70
2018-06-30T01:53:29.300Z,19.60
2018-06-30T01:54:29.278Z,19.74
2018-06-30T01:55:29.237Z,19.78
2018-06-30T01:56:29.215Z,19.77
2018-06-30T01:57:29.199Z,19.74
2018-06-30T01:58:29.173Z,19.62
2018-06-30T01:59:29.141Z,19.64
2018-06-30T02:00:29.121Z,19.64
2018-06-30T02:01:29.118Z,19.59
2018-06-30T02:02:29.064Z,19.60
2018-06-30T02:03:29.034Z,19.50
2018-06-30T02:04:29.013Z,19.52
2018-06-30T02:05:28.994Z,19.57
2018-06-30T02:06:28.969Z,19.57
2018-06-30T02:07:28.957Z,19.63
2018-06-30T02:08:28.946Z,19.56
2018-06-30T02:09:28.889Z,19.56
2018-06-30T02:10:28.970Z,19.60
2018-06-30T02:11:28.843Z,19.62
2018-06-30T02:12:28.818Z,19.64
2018-06-30T02:13:28.800Z,19.53
2018-06-30T02:14:28.763Z,19.49
2018-06-30T02:15:28.748Z,19.52
2018-06-30T02:16:28.757Z,19.49
2018-06-30T02:17:28.756Z,19.52
2018-06-30T02:18:28.672Z,19.59
2018-06-30T02:19:28.743Z,19.42
2018-06-30T02:20:28.639Z,19.50
2018-06-30T02:21:28.613Z,19.45
2018-06-30T02:22:28.571Z,19.42
2018-06-30T02:23:28.549Z,19.39
2018-06-30T02:24:28.568Z,19.39
2018-06-30T02:25:28.497Z,19.32
2018-06-30T02:26:28.591Z,19.39
2018-06-30T02:27:28.442Z,19.31
2018-06-30T02:28:28.417Z,19.31
2018-06-30T02:29:28.397Z,19.34
2018-06-30T02:30:28.373Z,19.32
2018-06-30T02:31:28.345Z,19.22
2018-06-30T02:32:28.321Z,19.24
2018-06-30T02:33:28.289Z,19.15
2018-06-30T02:34:28.266Z,19.20
2018-06-30T02:35:28.258Z,19.09
2018-06-30T02:36:28.228Z,19.07
2018-06-30T02:37:28.197Z,19.13
2018-06-30T02:38:28.172Z,19.15
2018-06-30T02:39:28.143Z,19.13
2018-06-30T02:40:28.114Z,19.17
2018-06-30T02:41:28.094Z,19.23
2018-06-30T02:42:28.076Z,19.16
2018-06-30T02:43:28.043Z,19.24
2018-06-30T02:44:28.018Z,19.27
2018-06-30T02:45:28.000Z,19.20
2018-06-30T02:46:27.970Z,19.08
2018-06-30T02:47:27.985Z,19.20
2018-06-30T02:48:27.927Z,19.23
2018-06-30T02:49:27.888Z,19.20
2018-06-30T02:50:27.875Z,19.34
2018-06-30T02:51:27.843Z,19.31
2018-06-30T02:52:27.841Z,19.19
2018-06-30T02:53:27.799Z,19.12
2018-06-30T02:54:27.777Z,19.08
2018-06-30T02:55:27.759Z,19.07
2018-06-30T02:56:27.724Z,19.04
2018-06-30T02:57:27.696Z,18.94
2018-06-30T02:58:27.673Z,18.98
2018-06-30T02:59:27.646Z,19.09
2018-06-30T03:00:27.697Z,19.12
2018-06-30T03:01:27.591Z,19.08
2018-06-30T03:02:27.631Z,19.12
2018-06-30T03:03:27.583Z,19.13
2018-06-30T03:04:27.571Z,19.09
2018-06-30T03:05:27.510Z,19.07
2018-06-30T03:06:27.519Z,18.96
2018-06-30T03:07:27.497Z,19.07
2018-06-30T03:09:06.904Z,19.12
2018-06-30T03:10:35.969Z,19.13
2018-06-30T03:11:35.666Z,19.13
2018-06-30T03:13:41.287Z,19.13
2018-06-30T03:14:41.142Z,19.04
2018-06-30T03:16:47.030Z,19.05
2018-06-30T03:17:47.043Z,18.88
2018-06-30T03:19:52.855Z,18.98
2018-06-30T03:20:52.873Z,18.88
2018-06-30T03:21:53.120Z,18.88
2018-06-30T03:22:53.707Z,18.82
2018-06-30T03:23:53.178Z,18.93
2018-06-30T03:24:52.645Z,19.01
2018-06-30T03:25:52.627Z,19.07
2018-06-30T03:26:52.588Z,18.93
2018-06-30T03:27:52.575Z,18.83
2018-06-30T03:28:52.543Z,18.74
2018-06-30T03:29:52.515Z,18.70
2018-06-30T03:30:52.500Z,18.78
2018-06-30T03:31:52.472Z,18.79
2018-06-30T03:32:52.439Z,18.76
2018-06-30T03:33:52.417Z,18.79
2018-06-30T03:34:52.386Z,18.82
2018-06-30T03:35:52.359Z,18.76
2018-06-30T03:36:52.344Z,18.75
2018-06-30T03:37:52.324Z,18.60
2018-06-30T03:38:52.301Z,18.74
2018-06-30T03:39:52.280Z,18.79
2018-06-30T03:40:52.237Z,18.75
2018-06-30T03:41:52.214Z,18.86
2018-06-30T03:42:52.197Z,18.79
2018-06-30T03:43:52.166Z,18.67
2018-06-30T03:44:52.142Z,18.66
2018-06-30T03:45:52.106Z,18.61
2018-06-30T03:46:52.106Z,18.67
2018-06-30T03:47:52.060Z,18.63
2018-06-30T03:48:52.045Z,18.71
2018-06-30T03:49:52.030Z,18.70
2018-06-30T03:50:51.992Z,18.79
2018-06-30T03:51:51.962Z,18.75
2018-06-30T03:52:51.969Z,18.67
2018-06-30T03:53:51.909Z,18.74
2018-06-30T03:54:51.879Z,18.74
2018-06-30T03:55:51.863Z,18.79
2018-06-30T03:56:51.836Z,18.79
2018-06-30T03:57:51.805Z,18.70
2018-06-30T03:58:51.776Z,18.68
2018-06-30T03:59:51.763Z,18.70
2018-06-30T04:00:51.732Z,18.71
2018-06-30T04:01:51.702Z,18.67
2018-06-30T04:02:51.685Z,18.63
2018-06-30T04:03:51.656Z,18.68
2018-06-30T04:04:51.639Z,18.67
2018-06-30T04:05:51.621Z,18.63
2018-06-30T04:06:51.572Z,18.74
2018-06-30T04:07:51.548Z,18.79
2018-06-30T04:09:08.738Z,18.64
2018-06-30T04:10:55.982Z,18.75
2018-06-30T04:11:56.641Z,18.75
2018-06-30T04:14:00.948Z,18.74
2018-06-30T04:15:00.607Z,18.76
2018-06-30T04:17:11.133Z,18.83
2018-06-30T04:18:11.320Z,18.89
2018-06-30T04:20:17.456Z,18.82
2018-06-30T04:21:17.388Z,18.89
2018-06-30T04:23:23.866Z,18.79
2018-06-30T04:24:24.332Z,18.79
2018-06-30T04:26:27.325Z,18.83
2018-06-30T04:27:27.739Z,18.85
2018-06-30T04:29:31.608Z,19.05
2018-06-30T04:30:30.672Z,18.88
2018-06-30T04:32:40.614Z,18.91
2018-06-30T04:33:40.627Z,18.85
2018-06-30T04:35:42.420Z,18.78
2018-06-30T04:36:42.634Z,18.82
2018-06-30T04:38:43.617Z,18.89
2018-06-30T04:39:43.316Z,18.94
2018-06-30T04:41:46.702Z,18.96
2018-06-30T04:42:46.406Z,18.98
2018-06-30T04:44:50.416Z,18.94
2018-06-30T04:45:50.498Z,18.94
2018-06-30T04:49:32.856Z,18.98
2018-06-30T04:50:32.783Z,19.08
2018-06-30T04:52:43.689Z,19.15
2018-06-30T04:53:43.660Z,19.22
2018-06-30T04:55:46.781Z,19.26
2018-06-30T04:56:46.605Z,19.24
2018-06-30T04:58:54.227Z,19.35
2018-06-30T04:59:54.210Z,19.24
2018-06-30T05:01:47.383Z,19.30
2018-06-30T05:02:47.681Z,19.20
2018-06-30T05:04:49.221Z,19.24
2018-06-30T05:05:49.709Z,19.42
2018-06-30T05:06:49.637Z,19.39
2018-06-30T05:07:49.557Z,19.37
2018-06-30T05:08:48.851Z,19.37
2018-06-30T05:09:48.807Z,19.45
2018-06-30T05:10:48.759Z,19.44
2018-06-30T05:11:48.739Z,19.52
2018-06-30T05:12:48.789Z,19.49
2018-06-30T05:13:48.686Z,19.50
2018-06-30T05:14:48.661Z,19.47
2018-06-30T05:15:48.647Z,19.56
2018-06-30T05:16:48.616Z,19.59
2018-06-30T05:17:48.649Z,19.64
2018-06-30T05:18:48.569Z,19.60
2018-06-30T05:19:48.562Z,19.62
2018-06-30T05:20:48.521Z,19.81
2018-06-30T05:21:48.487Z,19.84
2018-06-30T05:22:48.455Z,19.77
2018-06-30T05:23:48.447Z,19.86
2018-06-30T05:24:48.406Z,19.75
2018-06-30T05:25:48.426Z,19.72
2018-06-30T05:26:48.420Z,19.82
2018-06-30T05:27:48.342Z,19.75
2018-06-30T05:28:48.340Z,19.81
2018-06-30T05:29:48.285Z,19.81
2018-06-30T05:30:48.255Z,19.75
2018-06-30T05:31:48.240Z,19.77
2018-06-30T05:32:48.235Z,19.86
2018-06-30T05:33:48.185Z,19.93
2018-06-30T05:34:48.160Z,19.84
2018-06-30T05:35:48.171Z,19.89
2018-06-30T05:36:48.107Z,19.90
2018-06-30T05:37:48.084Z,20.05
2018-06-30T05:38:48.085Z,20.08
2018-06-30T05:39:48.039Z,19.99
2018-06-30T05:40:48.016Z,20.00
2018-06-30T05:41:48.034Z,20.05
2018-06-30T05:42:47.962Z,20.11
2018-06-30T05:43:47.930Z,20.25
2018-06-30T05:44:47.908Z,20.18
2018-06-30T05:45:47.892Z,20.25
2018-06-30T05:47:07.039Z,20.22
2018-06-30T05:48:44.360Z,20.25
2018-06-30T05:49:43.799Z,20.23
2018-06-30T05:51:49.597Z,20.46
2018-06-30T05:52:49.681Z,20.42
2018-06-30T05:54:52.822Z,20.44
2018-06-30T05:55:52.907Z,20.56
2018-06-30T05:57:55.896Z,20.58
2018-06-30T05:58:55.733Z,20.55
2018-06-30T06:00:56.876Z,20.65
2018-06-30T06:01:56.752Z,20.65
2018-06-30T06:04:02.884Z,20.71
2018-06-30T06:05:03.123Z,20.71
2018-06-30T06:07:07.545Z,20.85
2018-06-30T06:08:07.414Z,20.85
2018-06-30T06:09:07.392Z,20.85
2018-06-30T06:10:07.472Z,20.89
2018-06-30T06:11:07.737Z,20.85
2018-06-30T06:12:07.897Z,20.79
2018-06-30T06:13:07.820Z,20.85
2018-06-30T06:14:08.237Z,20.83
2018-06-30T06:15:08.199Z,20.86
2018-06-30T06:16:07.611Z,20.79
2018-06-30T06:17:07.136Z,20.86
2018-06-30T06:18:07.113Z,20.92
2018-06-30T06:19:07.093Z,20.95
2018-06-30T06:20:07.059Z,21.08
2018-06-30T06:21:07.079Z,21.11
2018-06-30T06:22:07.045Z,21.04
2018-06-30T06:23:06.983Z,21.08
2018-06-30T06:24:06.970Z,21.20
2018-06-30T06:25:06.942Z,21.23
2018-06-30T06:26:06.927Z,21.22
2018-06-30T06:27:06.891Z,21.32
2018-06-30T06:28:06.872Z,21.37
2018-06-30T06:29:06.837Z,21.35
2018-06-30T06:30:06.819Z,21.38
2018-06-30T06:31:06.803Z,21.44
2018-06-30T06:32:06.786Z,21.50
2018-06-30T06:33:06.740Z,21.45
2018-06-30T06:34:06.716Z,21.45
2018-06-30T06:35:06.737Z,21.50
2018-06-30T06:36:06.672Z,21.56
2018-06-30T06:37:06.652Z,21.51
2018-06-30T06:38:06.636Z,21.56
2018-06-30T06:39:06.600Z,21.60
2018-06-30T06:40:06.635Z,21.59
2018-06-30T06:41:06.546Z,21.67
2018-06-30T06:42:06.545Z,21.71
2018-06-30T06:43:06.500Z,21.74
2018-06-30T06:44:06.478Z,21.75
2018-06-30T06:45:06.461Z,21.77
2018-06-30T06:46:06.431Z,21.94
2018-06-30T06:47:06.400Z,22.01
2018-06-30T06:48:06.386Z,22.03
2018-06-30T06:49:06.361Z,22.04
2018-06-30T06:50:06.336Z,22.18
2018-06-30T06:51:06.372Z,22.09
2018-06-30T06:52:06.327Z,22.22
2018-06-30T06:53:06.316Z,22.28
2018-06-30T06:54:06.243Z,22.31
2018-06-30T06:55:06.288Z,22.37
2018-06-30T06:56:06.188Z,22.30
2018-06-30T06:57:06.161Z,22.36
2018-06-30T06:58:06.144Z,22.33
2018-06-30T06:59:06.115Z,22.43
2018-06-30T07:00:06.100Z,22.43
2018-06-30T07:01:06.083Z,22.48
2018-06-30T07:02:06.072Z,22.49
2018-06-30T07:03:06.159Z,22.53
2018-06-30T07:04:06.008Z,22.46
2018-06-30T07:05:05.985Z,22.52
2018-06-30T07:06:05.962Z,22.58
2018-06-30T07:07:07.754Z,22.68
2018-06-30T07:08:05.943Z,22.59
2018-06-30T07:09:05.881Z,22.64
2018-06-30T07:10:05.864Z,22.76
2018-06-30T07:11:05.836Z,22.71
2018-06-30T07:12:05.873Z,22.78
2018-06-30T07:13:05.799Z,22.77
2018-06-30T07:14:05.779Z,22.81
2018-06-30T07:15:05.801Z,22.85
2018-06-30T07:16:05.714Z,22.96
2018-06-30T07:17:05.871Z,22.92
2018-06-30T07:18:05.681Z,23.06
2018-06-30T07:19:05.692Z,22.98
2018-06-30T07:20:05.625Z,23.06
2018-06-30T07:21:05.613Z,23.13
2018-06-30T07:22:05.714Z,23.06
2018-06-30T07:23:05.651Z,23.08
2018-06-30T07:24:05.539Z,23.08
2018-06-30T07:25:05.513Z,23.10
2018-06-30T07:26:05.488Z,23.17
2018-06-30T07:27:05.470Z,23.18
2018-06-30T07:28:05.444Z,23.10
2018-06-30T07:29:05.439Z,23.17
2018-06-30T07:30:27.061Z,23.13
2018-06-30T07:32:05.189Z,23.22
2018-06-30T07:33:03.539Z,23.25
2018-06-30T07:35:06.813Z,23.31
2018-06-30T07:36:06.723Z,23.31
2018-06-30T07:37:06.652Z,23.33
2018-06-30T07:38:06.974Z,23.41
2018-06-30T07:39:06.930Z,23.45
2018-06-30T07:40:07.014Z,23.41
2018-06-30T07:41:06.983Z,23.44
2018-06-30T07:42:07.315Z,23.44
2018-06-30T07:43:07.076Z,23.60
2018-06-30T07:44:06.483Z,23.69
2018-06-30T07:45:23.425Z,23.69
2018-06-30T07:47:09.428Z,23.66
2018-06-30T07:48:08.984Z,23.74
2018-06-30T07:49:09.568Z,23.73
2018-06-30T07:50:09.598Z,23.79
2018-06-30T07:51:08.825Z,23.82
2018-06-30T07:52:08.850Z,23.76
2018-06-30T07:53:08.815Z,23.79
2018-06-30T07:54:09.364Z,23.71
2018-06-30T07:55:08.741Z,23.78
2018-06-30T07:56:08.728Z,23.82
2018-06-30T07:57:08.725Z,23.86
2018-06-30T07:58:08.680Z,23.82
2018-06-30T07:59:08.653Z,23.85
2018-06-30T08:00:08.628Z,24.00
2018-06-30T08:01:08.600Z,24.06
2018-06-30T08:02:08.616Z,24.08
2018-06-30T08:03:08.561Z,24.22
2018-06-30T08:04:08.538Z,24.16
2018-06-30T08:05:08.512Z,24.28
2018-06-30T08:06:08.711Z,24.25
2018-06-30T08:07:08.514Z,24.19
2018-06-30T08:08:08.542Z,24.23
2018-06-30T08:09:08.431Z,24.28
2018-06-30T08:10:08.402Z,24.43
2018-06-30T08:11:08.378Z,24.40
2018-06-30T08:12:08.354Z,24.37
2018-06-30T08:13:08.340Z,24.40
2018-06-30T08:14:08.328Z,24.37
2018-06-30T08:15:08.328Z,24.51
2018-06-30T08:16:08.261Z,24.55
2018-06-30T08:17:08.237Z,24.68
2018-06-30T08:18:08.216Z,24.70
2018-06-30T08:19:08.193Z,24.68
2018-06-30T08:20:08.218Z,24.66
2018-06-30T08:21:08.229Z,24.71
2018-06-30T08:22:08.132Z,24.79
2018-06-30T08:23:08.108Z,24.86
2018-06-30T08:24:08.093Z,24.91
2018-06-30T08:25:08.060Z,24.94
2018-06-30T08:26:08.032Z,24.90
2018-06-30T08:27:08.047Z,24.85
2018-06-30T08:28:08.008Z,24.91
2018-06-30T08:29:07.974Z,24.96
2018-06-30T08:30:07.963Z,24.97
2018-06-30T08:31:07.926Z,25.01
2018-06-30T08:32:07.910Z,25.00
2018-06-30T08:33:07.890Z,25.18
2018-06-30T08:34:07.866Z,25.21
2018-06-30T08:35:07.864Z,25.16
2018-06-30T08:36:07.825Z,25.34
2018-06-30T08:38:58.060Z,25.37
2018-06-30T08:39:57.902Z,25.46
2018-06-30T08:42:04.780Z,25.48
2018-06-30T08:43:04.808Z,25.46
2018-06-30T08:45:09.457Z,25.52
2018-06-30T08:46:09.301Z,25.59
2018-06-30T08:48:13.681Z,25.63
2018-06-30T08:49:13.673Z,25.74
2018-06-30T08:51:17.037Z,25.77
2018-06-30T08:52:17.136Z,25.86
2018-06-30T08:54:17.276Z,25.83
2018-06-30T08:55:16.122Z,25.78
2018-06-30T08:57:17.632Z,25.89
2018-06-30T08:58:17.450Z,25.96
2018-06-30T09:00:33.306Z,25.85
2018-06-30T09:01:33.294Z,25.90
2018-06-30T09:03:39.332Z,26.04
2018-06-30T09:04:39.137Z,26.07
2018-06-30T09:06:40.074Z,26.39
2018-06-30T09:07:40.104Z,26.41
2018-06-30T09:08:40.075Z,26.46
2018-06-30T09:09:39.805Z,26.51
2018-06-30T09:10:39.439Z,26.60
2018-06-30T09:11:39.297Z,26.42
2018-06-30T09:12:39.301Z,26.58
2018-06-30T09:13:39.282Z,26.61
2018-06-30T09:14:39.326Z,26.64
2018-06-30T09:15:39.394Z,26.53
2018-06-30T09:16:39.910Z,26.43
2018-06-30T09:17:39.953Z,26.57
2018-06-30T09:18:40.168Z,26.57
2018-06-30T09:19:39.752Z,26.58
2018-06-30T09:20:39.616Z,26.68
2018-06-30T09:21:39.172Z,26.63
2018-06-30T09:22:39.076Z,26.60
2018-06-30T09:23:39.060Z,26.49
2018-06-30T09:24:39.041Z,26.46
2018-06-30T09:25:39.088Z,26.51
2018-06-30T09:26:38.996Z,26.70
2018-06-30T09:27:38.968Z,26.71
2018-06-30T09:28:38.965Z,26.88
2018-06-30T09:29:38.967Z,26.89
2018-06-30T09:30:38.915Z,26.90
2018-06-30T09:31:39.412Z,27.07
2018-06-30T09:32:38.895Z,27.10
2018-06-30T09:33:38.838Z,27.00
2018-06-30T09:34:38.849Z,27.15
2018-06-30T09:35:38.814Z,27.26
2018-06-30T09:36:38.815Z,27.26
2018-06-30T09:37:38.803Z,27.44
2018-06-30T09:38:38.765Z,27.45
2018-06-30T09:39:38.728Z,27.41
2018-06-30T09:40:38.702Z,27.25
2018-06-30T09:41:38.684Z,27.32
2018-06-30T09:42:38.656Z,27.26
2018-06-30T09:43:38.647Z,27.27
2018-06-30T09:44:38.637Z,27.37
2018-06-30T09:45:38.596Z,27.40
2018-06-30T09:46:38.714Z,27.52
2018-06-30T09:47:38.561Z,27.50
2018-06-30T09:48:38.528Z,27.41
2018-06-30T09:49:38.518Z,27.64
2018-06-30T09:50:38.495Z,27.63
2018-06-30T09:51:38.570Z,27.73
2018-06-30T09:52:38.451Z,27.87
2018-06-30T09:53:38.455Z,27.95
2018-06-30T09:54:38.421Z,27.98
2018-06-30T09:55:38.424Z,27.97
2018-06-30T09:56:38.450Z,28.03
2018-06-30T09:57:38.359Z,27.95
2018-06-30T09:58:38.339Z,27.91
2018-06-30T09:59:38.314Z,27.94
2018-06-30T10:00:38.314Z,28.09
2018-06-30T10:01:38.278Z,28.03
2018-06-30T10:02:38.265Z,28.10
2018-06-30T10:03:38.239Z,27.90
2018-06-30T10:04:38.285Z,28.06
2018-06-30T10:05:38.208Z,28.05
2018-06-30T10:06:38.187Z,28.13
2018-06-30T10:07:38.163Z,28.07
2018-06-30T10:08:38.143Z,28.10
2018-06-30T10:09:38.118Z,28.09
2018-06-30T10:10:38.113Z,28.16
2018-06-30T10:11:38.083Z,28.12
2018-06-30T10:12:38.136Z,28.09
2018-06-30T10:13:38.043Z,28.25
2018-06-30T10:14:38.033Z,28.31
2018-06-30T10:15:38.026Z,28.40
2018-06-30T10:16:37.988Z,28.43
2018-06-30T10:17:37.991Z,28.53
2018-06-30T10:18:37.937Z,28.30
2018-06-30T10:19:37.916Z,28.16
2018-06-30T10:20:37.900Z,28.25
2018-06-30T10:21:37.894Z,28.40
2018-06-30T10:22:37.858Z,28.50
2018-06-30T10:23:37.839Z,28.64
2018-06-30T10:24:37.824Z,28.72
2018-06-30T10:25:37.849Z,28.72
2018-06-30T10:26:37.787Z,28.61
2018-06-30T10:27:37.793Z,28.40
2018-06-30T10:28:37.754Z,28.53
2018-06-30T10:29:37.771Z,28.62
2018-06-30T10:30:37.707Z,28.71
2018-06-30T10:31:37.683Z,28.72
2018-06-30T10:32:37.720Z,28.84
2018-06-30T10:33:37.772Z,28.71
2018-06-30T10:34:37.629Z,28.75
2018-06-30T10:35:37.607Z,28.53
2018-06-30T10:36:37.603Z,28.57
2018-06-30T10:37:37.635Z,28.57
2018-06-30T10:38:37.554Z,28.69
2018-06-30T10:39:37.534Z,28.69
2018-06-30T10:40:37.521Z,28.84
2018-06-30T10:41:37.505Z,29.03
2018-06-30T10:42:37.473Z,29.04
2018-06-30T10:43:37.485Z,28.69
2018-06-30T10:44:37.545Z,28.65
2018-06-30T10:45:37.426Z,28.62
2018-06-30T10:46:37.403Z,28.86
2018-06-30T10:47:37.814Z,28.93
2018-06-30T10:48:37.462Z,28.87
2018-06-30T10:49:37.335Z,28.91
2018-06-30T10:50:37.332Z,28.96
2018-06-30T10:51:37.331Z,29.00
2018-06-30T10:52:37.342Z,29.06
2018-06-30T10:53:37.270Z,29.15
2018-06-30T10:54:37.252Z,29.12
2018-06-30T10:55:37.230Z,29.10
2018-06-30T10:56:37.255Z,29.07
2018-06-30T10:57:37.195Z,29.02
2018-06-30T10:58:37.172Z,28.98
2018-06-30T10:59:37.153Z,29.06
2018-06-30T11:00:37.287Z,29.02
2018-06-30T11:01:37.162Z,29.15
2018-06-30T11:02:37.116Z,29.00
2018-06-30T11:03:37.084Z,29.13
2018-06-30T11:04:37.118Z,29.27
2018-06-30T11:05:37.043Z,29.34
2018-06-30T11:06:37.027Z,29.39
2018-06-30T11:07:37.005Z,29.37
2018-06-30T11:08:36.999Z,29.47
2018-06-30T11:09:37.054Z,29.61
2018-06-30T11:10:36.961Z,29.66
2018-06-30T11:11:36.939Z,29.46
2018-06-30T11:12:37.037Z,29.39
2018-06-30T11:13:36.889Z,29.41
2018-06-30T11:14:36.874Z,29.56
2018-06-30T11:15:36.859Z,29.70
2018-06-30T11:16:36.894Z,29.66
2018-06-30T11:17:36.828Z,29.89
2018-06-30T11:18:36.808Z,29.95
2018-06-30T11:19:36.789Z,30.13
2018-06-30T11:20:36.770Z,30.10
2018-06-30T11:23:19.427Z,30.08
2018-06-30T11:24:41.292Z,30.17
2018-06-30T11:25:20.169Z,30.05
2018-06-30T11:26:20.781Z,30.13
2018-06-30T11:27:19.428Z,30.26
2018-06-30T11:28:19.274Z,30.28
2018-06-30T11:29:19.289Z,30.29
2018-06-30T11:30:20.090Z,30.22
2018-06-30T11:31:19.801Z,30.15
2018-06-30T11:32:19.117Z,30.26
2018-06-30T11:33:19.104Z,30.36
2018-06-30T11:34:19.081Z,30.46
2018-06-30T11:35:19.089Z,30.75
2018-06-30T11:36:19.052Z,31.08
2018-06-30T11:37:19.029Z,31.60
2018-06-30T11:38:19.082Z,32.04
2018-06-30T11:39:18.986Z,32.32
2018-06-30T11:40:18.997Z,32.27
2018-06-30T11:41:18.968Z,32.38
2018-06-30T11:42:18.935Z,32.33
2018-06-30T11:43:18.953Z,32.27
2018-06-30T11:44:18.915Z,32.41
2018-06-30T11:45:18.879Z,32.55
2018-06-30T11:46:18.893Z,32.77
2018-06-30T11:47:18.854Z,33.20
2018-06-30T11:48:18.836Z,33.17
2018-06-30T11:49:18.829Z,33.30
2018-06-30T11:50:18.984Z,33.35
2018-06-30T11:51:18.789Z,33.19
2018-06-30T11:52:18.888Z,33.67
2018-06-30T11:53:18.784Z,33.92
2018-06-30T11:54:18.736Z,33.85
2018-06-30T11:55:18.725Z,34.16
2018-06-30T11:56:18.721Z,33.67
2018-06-30T11:57:18.702Z,33.49
2018-06-30T11:58:18.808Z,33.07
2018-06-30T11:59:18.777Z,32.95
2018-06-30T12:00:18.642Z,33.27
2018-06-30T12:01:18.640Z,33.41
2018-06-30T12:02:18.671Z,32.70
2018-06-30T12:03:18.602Z,33.04
2018-06-30T12:04:18.584Z,33.30
2018-06-30T12:05:18.579Z,33.63
2018-06-30T12:06:18.574Z,33.29
2018-06-30T12:07:18.565Z,33.39
2018-06-30T12:08:18.538Z,32.99
2018-06-30T12:09:18.583Z,32.98
2018-06-30T12:10:18.508Z,33.07
2018-06-30T12:11:18.504Z,33.36
2018-06-30T12:12:18.503Z,33.30
2018-06-30T12:13:18.459Z,33.64
2018-06-30T12:14:18.476Z,33.71
2018-06-30T12:15:18.441Z,33.92
2018-06-30T12:16:18.435Z,34.45
2018-06-30T12:17:18.446Z,34.23
2018-06-30T12:18:18.393Z,34.01
2018-06-30T12:19:18.464Z,33.82
2018-06-30T12:20:18.371Z,34.23
2018-06-30T12:21:18.371Z,34.00
2018-06-30T12:22:18.388Z,33.67
2018-06-30T12:23:18.329Z,33.74
2018-06-30T12:24:18.632Z,33.84
2018-06-30T12:25:18.303Z,34.32
2018-06-30T12:26:18.328Z,34.59
2018-06-30T12:27:18.626Z,34.59
2018-06-30T12:28:18.266Z,34.50
2018-06-30T12:29:20.629Z,34.26
2018-06-30T12:30:18.312Z,34.83
2018-06-30T12:31:18.253Z,34.92
2018-06-30T12:32:18.328Z,34.73
2018-06-30T12:33:18.339Z,34.26
2018-06-30T12:34:18.292Z,33.85
2018-06-30T12:35:18.380Z,34.29
2018-06-30T12:36:18.292Z,34.62
2018-06-30T12:37:18.218Z,34.64
2018-06-30T12:38:18.152Z,34.30
2018-06-30T12:39:18.136Z,34.52
2018-06-30T12:40:18.141Z,34.57
2018-06-30T12:41:18.112Z,34.87
2018-06-30T12:42:18.123Z,35.09
2018-06-30T12:43:18.149Z,35.46
2018-06-30T12:44:18.096Z,35.02
2018-06-30T12:45:18.060Z,34.70
2018-06-30T12:46:18.579Z,34.42
2018-06-30T12:47:18.071Z,34.60
2018-06-30T12:48:19.089Z,34.72
2018-06-30T12:49:18.012Z,33.92
2018-06-30T12:50:18.004Z,34.01
2018-06-30T12:51:18.021Z,34.28
2018-06-30T12:52:17.991Z,34.59
2018-06-30T12:53:17.998Z,34.32
2018-06-30T12:54:18.102Z,34.26
2018-06-30T12:55:17.961Z,33.95
2018-06-30T12:56:18.236Z,33.67
2018-06-30T12:57:18.036Z,33.86
2018-06-30T12:58:17.911Z,34.72
2018-06-30T12:59:17.988Z,35.16
2018-06-30T13:00:17.940Z,35.04
2018-06-30T13:01:17.929Z,35.29
2018-06-30T13:02:17.872Z,35.10
2018-06-30T13:03:17.864Z,34.75
2018-06-30T13:04:17.909Z,34.94
2018-06-30T13:05:17.867Z,34.75
2018-06-30T13:06:17.862Z,34.28
2018-06-30T13:07:17.820Z,34.01
2018-06-30T13:08:17.803Z,33.89
2018-06-30T13:09:17.964Z,34.13
2018-06-30T13:10:17.820Z,34.23
2018-06-30T13:11:17.806Z,34.34
2018-06-30T13:12:17.774Z,34.26
2018-06-30T13:13:17.826Z,33.86
2018-06-30T13:14:17.742Z,34.23
2018-06-30T13:15:17.736Z,33.79
2018-06-30T13:16:17.773Z,34.20
2018-06-30T13:17:17.859Z,34.87
2018-06-30T13:18:17.709Z,35.36
2018-06-30T13:19:17.768Z,35.09
2018-06-30T13:20:17.688Z,34.91
2018-06-30T13:21:17.693Z,35.44
2018-06-30T13:22:17.667Z,35.57
2018-06-30T13:23:17.752Z,35.23
2018-06-30T13:24:17.682Z,35.57
2018-06-30T13:25:18.400Z,35.70
2018-06-30T13:26:17.629Z,34.91
2018-06-30T13:27:17.617Z,35.07
2018-06-30T13:28:17.626Z,35.32
2018-06-30T13:29:17.608Z,35.44
2018-06-30T13:30:17.728Z,35.79
2018-06-30T13:31:17.589Z,36.09
2018-06-30T13:32:17.592Z,35.76
2018-06-30T13:33:18.392Z,35.75
2018-06-30T13:34:18.114Z,34.94
2018-06-30T13:35:17.785Z,35.29
2018-06-30T13:36:17.612Z,35.76
2018-06-30T13:37:17.546Z,35.98
2018-06-30T13:38:17.605Z,35.85
2018-06-30T13:39:17.829Z,35.69
2018-06-30T13:40:17.536Z,35.60
2018-06-30T13:41:17.514Z,35.01
2018-06-30T13:42:17.720Z,35.31
2018-06-30T13:43:17.547Z,34.86
2018-06-30T13:44:17.545Z,34.70
2018-06-30T13:45:17.572Z,34.66
2018-06-30T13:46:17.708Z,34.57
2018-06-30T13:47:17.458Z,35.35
2018-06-30T13:48:17.476Z,35.04
2018-06-30T13:49:17.560Z,34.78